createdAt,value
2022-12-17T00:02:11.864Z,18.73
2022-12-17T00:04:57.040Z,19.77
2022-12-17T00:07:41.957Z,19.10
2022-12-17T00:10:27.312Z,17.58
2022-12-17T00:13:12.573Z,16.88
2022-12-17T00:15:57.650Z,17.98
2022-12-17T00:18:42.895Z,16.85
2022-12-17T00:21:28.415Z,16.63
2022-12-17T00:24:13.835Z,15.75
2022-12-17T00:26:58.947Z,15.85
2022-12-17T00:29:43.910Z,16.00
2022-12-17T00:32:29.245Z,16.23
2022-12-17T00:35:14.412Z,15.03
2022-12-17T00:37:59.977Z,16.55
2022-12-17T00:40:44.859Z,15.88
2022-12-17T00:43:31.744Z,14.52
2022-12-17T00:46:17.234Z,14.52
2022-12-17T00:49:02.326Z,14.57
2022-12-17T00:51:48.962Z,13.18
2022-12-17T00:54:34.321Z,12.32
2022-12-17T00:57:19.538Z,11.68
2022-12-17T01:00:04.572Z,11.07
2022-12-17T01:02:49.748Z,12.10
2022-12-17T01:05:35.450Z,11.65
2022-12-17T01:08:32.792Z,12.02
2022-12-17T01:11:22.721Z,11.40
2022-12-17T01:14:08.447Z,12.63
2022-12-17T01:16:54.935Z,11.67
2022-12-17T01:19:41.615Z,11.57
2022-12-17T01:22:27.001Z,12.10
2022-12-17T01:25:11.829Z,10.32
2022-12-17T01:28:07.885Z,12.30
2022-12-17T01:30:55.712Z,11.37
2022-12-17T01:33:41.162Z,11.75
2022-12-17T01:36:26.319Z,12.80
2022-12-17T01:39:11.610Z,11.63
2022-12-17T01:41:56.759Z,10.75
2022-12-17T01:45:00.359Z,12.33
2022-12-17T01:47:48.837Z,10.88
2022-12-17T01:50:36.135Z,10.38
2022-12-17T01:53:24.016Z,10.05
2022-12-17T01:56:09.519Z,11.00
2022-12-17T01:58:54.889Z,10.97
2022-12-17T02:01:40.293Z,10.25
2022-12-17T02:04:27.702Z,11.82
2022-12-17T02:07:37.183Z,11.65
2022-12-17T02:10:38.305Z,11.23
2022-12-17T02:13:38.174Z,11.70
2022-12-17T02:16:32.685Z,12.85
2022-12-17T02:19:29.891Z,11.70
2022-12-17T02:22:22.844Z,11.90
2022-12-17T02:25:24.966Z,12.02
2022-12-17T02:28:10.335Z,11.53
2022-12-17T02:30:56.239Z,12.43
2022-12-17T02:33:41.557Z,12.10
2022-12-17T02:36:27.007Z,12.05
2022-12-17T02:39:12.340Z,12.52
2022-12-17T02:42:09.060Z,12.67
2022-12-17T02:44:55.844Z,13.27
2022-12-17T02:47:42.636Z,12.43
2022-12-17T02:50:29.043Z,12.32
2022-12-17T02:53:17.161Z,11.93
2022-12-17T02:56:02.014Z,12.37
2022-12-17T02:58:47.211Z,13.35
2022-12-17T03:01:32.816Z,12.98
2022-12-17T03:04:17.821Z,11.77
2022-12-17T03:07:03.294Z,10.75
2022-12-17T03:09:48.508Z,11.13
2022-12-17T03:12:33.739Z,10.27
2022-12-17T03:15:21.665Z,11.45
2022-12-17T03:18:10.179Z,10.82
2022-12-17T03:20:55.505Z,12.30
2022-12-17T03:31:16.859Z,9.00
2022-12-17T03:34:02.007Z,11.38
2022-12-17T03:36:47.652Z,10.68
2022-12-17T03:39:33.008Z,10.60
2022-12-17T03:42:18.990Z,11.60
2022-12-17T03:45:03.800Z,11.57
2022-12-17T03:47:49.315Z,11.30
2022-12-17T03:50:34.581Z,11.57
2022-12-17T03:53:22.905Z,10.83
2022-12-17T03:56:08.512Z,11.18
2022-12-17T03:58:53.286Z,11.20
2022-12-17T04:01:38.367Z,10.85
2022-12-17T04:04:23.603Z,9.75
2022-12-17T04:07:19.064Z,10.83
2022-12-17T04:10:03.802Z,10.88
2022-12-17T04:12:48.691Z,11.95
2022-12-17T04:15:33.533Z,11.57
2022-12-17T04:18:18.794Z,11.55
2022-12-17T04:21:04.006Z,10.83
2022-12-17T04:23:48.770Z,12.35
2022-12-17T04:26:33.692Z,12.40
2022-12-17T04:29:18.494Z,12.85
2022-12-17T04:32:03.406Z,13.32
2022-12-17T04:34:48.692Z,13.47
2022-12-17T04:37:33.540Z,13.25
2022-12-17T04:40:18.357Z,13.55
2022-12-17T04:43:03.624Z,12.25
2022-12-17T04:45:48.874Z,13.00
2022-12-17T04:48:34.125Z,11.73
2022-12-17T04:51:19.018Z,12.65
2022-12-17T04:54:03.934Z,12.55
2022-12-17T04:56:49.307Z,12.45
2022-12-17T04:59:35.008Z,14.05
2022-12-17T05:02:20.107Z,13.20
2022-12-17T05:05:05.169Z,13.45
2022-12-17T05:07:50.556Z,13.20
2022-12-17T05:10:36.063Z,13.07
2022-12-17T05:13:21.176Z,13.95
2022-12-17T05:16:06.707Z,13.07
2022-12-17T05:18:51.812Z,12.82
2022-12-17T05:21:37.268Z,11.82
2022-12-17T05:24:22.691Z,12.95
2022-12-17T05:27:07.868Z,12.32
2022-12-17T05:29:52.855Z,11.63
2022-12-17T05:32:37.804Z,12.43
2022-12-17T05:35:23.604Z,12.23
2022-12-17T05:38:08.404Z,12.93
2022-12-17T05:40:53.821Z,12.55
2022-12-17T05:43:39.063Z,12.57
2022-12-17T05:46:24.361Z,11.98
2022-12-17T05:49:09.734Z,12.88
2022-12-17T05:51:54.562Z,12.55
2022-12-17T05:54:39.689Z,17.92
2022-12-17T05:57:24.471Z,15.80
2022-12-17T06:00:09.386Z,11.48
2022-12-17T06:02:54.820Z,11.88
2022-12-17T06:05:40.080Z,16.27
2022-12-17T06:08:27.444Z,22.77
2022-12-17T06:11:13.312Z,12.50
2022-12-17T06:13:58.134Z,12.18
2022-12-17T06:16:43.401Z,10.93
2022-12-17T06:19:28.294Z,12.75
2022-12-17T06:22:13.520Z,12.13
2022-12-17T06:24:58.907Z,10.93
2022-12-17T06:27:44.149Z,12.35
2022-12-17T06:30:30.075Z,12.00
2022-12-17T06:33:29.601Z,11.77
2022-12-17T06:36:22.222Z,12.00
2022-12-17T06:39:08.275Z,11.43
2022-12-17T06:41:54.763Z,12.65
2022-12-17T06:44:47.318Z,12.90
2022-12-17T06:47:32.496Z,12.40
2022-12-17T06:50:17.863Z,10.63
2022-12-17T06:53:02.620Z,11.97
2022-12-17T06:55:47.971Z,12.73
2022-12-17T06:58:32.788Z,12.65
2022-12-17T07:01:17.797Z,12.50
2022-12-17T07:04:02.867Z,11.75
2022-12-17T07:06:47.921Z,12.50
2022-12-17T07:09:32.735Z,12.30
2022-12-17T07:12:17.858Z,13.23
2022-12-17T07:15:03.043Z,12.35
2022-12-17T07:17:47.899Z,13.73
2022-12-17T07:20:33.151Z,11.80
2022-12-17T07:23:18.366Z,11.30
2022-12-17T07:26:03.243Z,12.15
2022-12-17T07:28:48.119Z,11.27
2022-12-17T07:31:33.462Z,11.48
2022-12-17T07:34:18.695Z,13.23
2022-12-17T07:37:03.572Z,12.75
2022-12-17T07:39:48.622Z,12.05
2022-12-17T07:42:33.378Z,13.23
2022-12-17T07:45:18.434Z,12.98
2022-12-17T07:48:10.630Z,12.30
2022-12-17T07:50:55.403Z,12.05
2022-12-17T07:53:40.303Z,12.20
2022-12-17T07:56:25.977Z,12.70
2022-12-17T07:59:10.838Z,12.48
2022-12-17T08:01:56.421Z,8.37
2022-12-17T08:04:41.998Z,11.25
2022-12-17T08:07:27.355Z,13.30
2022-12-17T08:10:22.912Z,12.48
2022-12-17T08:13:14.439Z,13.02
2022-12-17T08:16:00.397Z,13.17
2022-12-17T08:18:45.757Z,12.05
2022-12-17T08:21:31.026Z,13.02
2022-12-17T08:24:16.062Z,14.25
2022-12-17T08:27:01.329Z,12.25
2022-12-17T08:29:46.406Z,16.20
2022-12-17T08:32:31.727Z,14.30
2022-12-17T08:35:16.704Z,13.55
2022-12-17T08:38:01.495Z,15.75
2022-12-17T08:40:46.365Z,11.27
2022-12-17T08:43:32.037Z,12.90
2022-12-17T08:46:17.349Z,12.82
2022-12-17T08:49:02.627Z,11.05
2022-12-17T08:51:47.517Z,12.23
2022-12-17T08:54:32.708Z,10.77
2022-12-17T08:57:30.843Z,10.73
2022-12-17T09:00:16.816Z,11.32
2022-12-17T09:03:02.128Z,11.93
2022-12-17T09:05:47.711Z,11.85
2022-12-17T09:08:32.823Z,12.02
2022-12-17T09:11:18.813Z,10.57
2022-12-17T09:14:04.121Z,10.77
2022-12-17T09:16:49.386Z,12.45
2022-12-17T09:19:34.702Z,11.82
2022-12-17T09:22:19.785Z,11.95
2022-12-17T09:25:04.560Z,11.03
2022-12-17T09:27:49.845Z,13.05
2022-12-17T09:30:35.269Z,11.38
2022-12-17T09:33:20.454Z,11.60
2022-12-17T09:36:05.596Z,10.65
2022-12-17T09:38:50.895Z,12.20
2022-12-17T09:42:10.298Z,10.43
2022-12-17T09:45:11.838Z,12.43
2022-12-17T09:48:24.259Z,10.00
2022-12-17T09:51:12.244Z,9.00
2022-12-17T09:54:11.385Z,10.50
2022-12-17T09:56:59.117Z,9.90
2022-12-17T09:59:51.646Z,10.40
2022-12-17T10:02:39.615Z,10.35
2022-12-17T10:05:31.707Z,11.63
2022-12-17T10:08:17.997Z,11.17
2022-12-17T10:11:04.651Z,11.25
2022-12-17T10:13:49.483Z,9.35
2022-12-17T10:17:11.648Z,10.15
2022-12-17T10:20:00.183Z,9.32
2022-12-17T10:22:45.813Z,10.87
2022-12-17T10:25:37.281Z,8.80
2022-12-17T10:28:30.476Z,10.15
2022-12-17T10:31:32.723Z,10.32
2022-12-17T10:34:18.013Z,10.98
2022-12-17T10:37:09.130Z,10.97
2022-12-17T10:39:54.794Z,10.50
2022-12-17T10:42:43.597Z,10.25
2022-12-17T10:45:46.660Z,10.70
2022-12-17T10:48:48.665Z,10.13
2022-12-17T10:51:53.845Z,9.10
2022-12-17T10:54:49.926Z,10.52
2022-12-17T10:57:41.133Z,10.18
2022-12-17T11:00:49.721Z,11.55
2022-12-17T11:03:42.702Z,11.80
2022-12-17T11:06:29.010Z,11.07
2022-12-17T11:09:14.989Z,10.00
2022-12-17T11:12:05.631Z,11.32
2022-12-17T11:14:58.581Z,12.65
2022-12-17T11:17:45.036Z,11.18
2022-12-17T11:20:48.854Z,11.03
2022-12-17T11:23:38.092Z,10.35
2022-12-17T11:26:31.917Z,11.27
2022-12-17T11:29:18.273Z,11.68
2022-12-17T11:32:47.324Z,8.13
2022-12-17T11:35:41.841Z,10.73
2022-12-17T11:38:45.052Z,11.82
2022-12-17T11:41:54.172Z,11.38
2022-12-17T11:45:16.842Z,9.43
2022-12-17T11:48:24.122Z,9.23
2022-12-17T11:51:27.478Z,10.80
2022-12-17T11:54:30.419Z,8.55
2022-12-17T11:57:18.229Z,9.98
2022-12-17T12:00:29.814Z,8.63
2022-12-17T12:03:27.673Z,9.40
2022-12-17T12:06:17.873Z,8.63
2022-12-17T12:09:25.202Z,8.43
2022-12-17T12:12:24.118Z,9.45
2022-12-17T12:15:18.377Z,6.45
2022-12-17T12:18:25.929Z,8.30
2022-12-17T12:21:10.613Z,8.90
2022-12-17T12:24:18.364Z,8.75
2022-12-17T12:27:42.972Z,9.93
2022-12-17T12:30:38.767Z,9.25
2022-12-17T12:33:40.562Z,10.27
2022-12-17T12:36:29.630Z,9.17
2022-12-17T12:39:16.210Z,9.75
2022-12-17T12:42:11.139Z,9.85
2022-12-17T12:45:11.636Z,7.65
2022-12-17T12:48:08.566Z,9.30
2022-12-17T12:51:09.495Z,9.37
2022-12-17T12:53:54.328Z,9.23
2022-12-17T12:56:53.085Z,10.32
2022-12-17T12:59:55.385Z,9.88
2022-12-17T13:02:51.139Z,10.32
2022-12-17T13:05:34.727Z,10.20
2022-12-17T13:08:07.400Z,11.10
2022-12-17T13:10:35.645Z,13.07
2022-12-17T13:13:31.301Z,10.20
2022-12-17T13:16:04.587Z,8.43
2022-12-17T13:18:39.357Z,10.23
2022-12-17T13:21:24.920Z,10.38
2022-12-17T13:23:51.781Z,9.90
2022-12-17T13:26:41.361Z,8.60
2022-12-17T13:29:35.895Z,9.77
2022-12-17T13:32:03.541Z,9.37
2022-12-17T13:34:54.696Z,10.20
2022-12-17T13:37:47.387Z,9.90
2022-12-17T13:40:43.538Z,7.45
2022-12-17T13:43:17.563Z,9.32
2022-12-17T13:45:45.160Z,10.90
2022-12-17T13:48:24.211Z,10.48
2022-12-17T13:51:02.222Z,9.30
2022-12-17T13:53:30.209Z,10.18
2022-12-17T13:55:57.949Z,9.40
2022-12-17T13:58:32.889Z,9.67
2022-12-17T14:01:14.358Z,10.43
2022-12-17T14:04:08.645Z,10.52
2022-12-17T14:06:38.247Z,10.75
2022-12-17T14:09:05.965Z,10.35
2022-12-17T14:11:52.419Z,11.30
2022-12-17T14:14:27.749Z,10.60
2022-12-17T14:16:55.124Z,12.52
2022-12-17T14:19:23.080Z,11.20
2022-12-17T14:21:50.110Z,10.10
2022-12-17T14:24:19.186Z,10.98
2022-12-17T14:26:54.917Z,10.23
2022-12-17T14:29:23.932Z,11.05
2022-12-17T14:31:59.637Z,11.13
2022-12-17T14:34:26.415Z,11.27
2022-12-17T14:37:03.036Z,10.85
2022-12-17T14:39:32.425Z,11.70
2022-12-17T14:42:32.382Z,12.93
2022-12-17T14:45:15.575Z,11.23
2022-12-17T14:47:59.878Z,11.93
2022-12-17T14:50:30.836Z,13.88
2022-12-17T14:53:00.024Z,12.97
2022-12-17T14:55:29.948Z,7.65
2022-12-17T14:58:16.142Z,10.45
2022-12-17T15:01:09.997Z,8.60
2022-12-17T15:03:46.114Z,6.45
2022-12-17T15:06:19.175Z,10.20
2022-12-17T15:08:48.146Z,9.30
2022-12-17T15:11:17.996Z,9.48
2022-12-17T15:13:44.623Z,10.45
2022-12-17T15:16:12.099Z,10.32
2022-12-17T15:18:39.319Z,9.13
2022-12-17T15:21:06.260Z,9.80
2022-12-17T15:23:33.604Z,7.97
2022-12-17T15:26:00.202Z,11.13
2022-12-17T15:28:26.918Z,6.55
2022-12-17T15:30:53.849Z,10.00
2022-12-17T15:33:20.885Z,9.10
2022-12-17T15:35:47.498Z,10.40
2022-12-17T15:38:14.095Z,10.75
2022-12-17T15:40:41.217Z,10.48
2022-12-17T15:43:11.779Z,10.13
2022-12-17T15:45:42.533Z,9.32
2022-12-17T15:48:10.579Z,9.48
2022-12-17T15:50:38.062Z,11.38
2022-12-17T15:53:05.059Z,10.52
2022-12-17T15:55:32.009Z,12.23
2022-12-17T15:57:58.845Z,11.82
2022-12-17T16:00:25.527Z,12.60
2022-12-17T16:02:52.324Z,9.60
2022-12-17T16:05:20.753Z,11.90
2022-12-17T16:07:47.978Z,12.07
2022-12-17T16:10:14.956Z,11.73
2022-12-17T16:12:42.602Z,13.27
2022-12-17T16:15:10.477Z,12.38
2022-12-17T16:17:37.160Z,8.13
2022-12-17T16:20:05.649Z,10.90
2022-12-17T16:22:32.402Z,11.35
2022-12-17T16:24:58.981Z,9.93
2022-12-17T16:27:25.732Z,10.43
2022-12-17T16:29:52.374Z,16.02
2022-12-17T16:32:19.173Z,22.20
2022-12-17T16:34:45.808Z,18.67
2022-12-17T16:37:12.675Z,14.20
2022-12-17T16:39:39.777Z,12.10
2022-12-17T16:42:06.409Z,11.23
2022-12-17T16:44:33.143Z,12.43
2022-12-17T16:47:00.187Z,14.10
2022-12-17T16:49:27.172Z,11.73
2022-12-17T16:51:55.776Z,12.63
2022-12-17T16:54:26.976Z,11.23
2022-12-17T16:56:54.504Z,11.30
2022-12-17T16:59:22.119Z,9.52
2022-12-17T17:01:50.923Z,10.18
2022-12-17T17:04:20.591Z,10.32
2022-12-17T17:06:53.189Z,10.35
2022-12-17T17:09:20.970Z,9.13
2022-12-17T17:11:51.545Z,7.63
2022-12-17T17:14:19.288Z,10.27
2022-12-17T17:16:46.175Z,10.35
2022-12-17T17:19:12.895Z,9.43
2022-12-17T17:21:48.659Z,9.60
2022-12-17T17:24:21.177Z,10.30
2022-12-17T17:26:49.313Z,9.90
2022-12-17T17:29:16.107Z,10.80
2022-12-17T17:34:29.703Z,11.27
2022-12-17T17:36:56.317Z,10.63
2022-12-17T17:39:23.141Z,10.95
2022-12-17T17:41:49.724Z,10.07
2022-12-17T17:44:16.513Z,11.05
2022-12-17T17:46:43.349Z,9.57
2022-12-17T17:49:11.783Z,11.48
2022-12-17T17:54:30.688Z,11.57
2022-12-17T17:56:57.262Z,11.07
2022-12-17T17:59:30.874Z,12.63
2022-12-17T18:02:00.133Z,12.55
2022-12-17T18:04:27.111Z,9.52
2022-12-17T18:07:23.597Z,11.88
2022-12-17T18:09:40.494Z,12.50
2022-12-17T18:12:25.793Z,9.47
2022-12-17T18:15:13.024Z,10.55
2022-12-17T18:17:39.490Z,11.70
2022-12-17T18:20:06.820Z,10.43
2022-12-17T18:22:33.401Z,8.70
2022-12-17T18:24:59.962Z,12.23
2022-12-17T18:27:26.535Z,11.15
2022-12-17T18:29:53.061Z,13.48
2022-12-17T18:32:19.731Z,12.70
2022-12-17T18:34:46.407Z,11.88
2022-12-17T18:37:13.075Z,12.30
2022-12-17T18:39:39.756Z,13.45
2022-12-17T18:42:24.888Z,12.07
2022-12-17T18:44:51.481Z,12.65
2022-12-17T18:47:18.907Z,12.93
2022-12-17T18:49:45.531Z,10.47
2022-12-17T18:52:16.697Z,13.85
2022-12-17T18:54:43.857Z,11.35
2022-12-17T18:57:10.651Z,10.13
2022-12-17T18:59:37.440Z,12.60
2022-12-17T19:02:04.229Z,14.73
2022-12-17T19:04:32.859Z,13.75
2022-12-17T19:06:59.632Z,9.10
2022-12-17T19:09:29.158Z,8.77
2022-12-17T19:11:56.593Z,12.00
2022-12-17T19:14:24.993Z,14.00
2022-12-17T19:16:53.613Z,12.80
2022-12-17T19:19:21.229Z,13.60
2022-12-17T19:21:48.680Z,14.13
2022-12-17T19:24:17.361Z,13.55
2022-12-17T19:26:45.018Z,11.87
2022-12-17T19:29:16.898Z,13.27
2022-12-17T19:31:43.810Z,14.23
2022-12-17T19:34:13.062Z,14.85
2022-12-17T19:36:40.807Z,14.57
2022-12-17T19:39:11.136Z,15.33
2022-12-17T19:41:38.143Z,12.70
2022-12-17T19:44:07.307Z,11.88
2022-12-17T19:46:35.483Z,12.45
2022-12-17T19:49:03.455Z,13.52
2022-12-17T19:51:31.142Z,11.27
2022-12-17T19:54:00.628Z,11.52
2022-12-17T19:56:31.964Z,11.68
2022-12-17T19:59:06.684Z,10.93
2022-12-17T20:01:36.412Z,13.10
2022-12-17T20:04:03.313Z,12.87
2022-12-17T20:06:32.647Z,13.10
2022-12-17T20:08:59.945Z,12.75
2022-12-17T20:11:34.948Z,13.38
2022-12-17T20:14:12.194Z,13.23
2022-12-17T20:16:44.417Z,12.20
2022-12-17T20:19:13.699Z,13.55
2022-12-17T20:21:40.662Z,14.25
2022-12-17T20:24:07.489Z,10.43
2022-12-17T20:26:34.334Z,12.85
2022-12-17T20:29:01.090Z,13.03
2022-12-17T20:31:28.017Z,22.52
2022-12-17T20:33:55.396Z,14.13
2022-12-17T20:36:23.090Z,13.25
2022-12-17T20:38:49.997Z,14.75
2022-12-17T20:41:22.996Z,11.73
2022-12-17T20:43:50.919Z,12.05
2022-12-17T20:46:19.139Z,13.48
2022-12-17T20:48:45.914Z,13.77
2022-12-17T20:51:16.982Z,11.20
2022-12-17T20:53:44.764Z,12.00
2022-12-17T20:56:20.174Z,11.68
2022-12-17T20:58:47.026Z,12.48
2022-12-17T21:01:20.795Z,11.95
2022-12-17T21:03:49.841Z,13.82
2022-12-17T21:06:19.977Z,12.87
2022-12-17T21:08:50.241Z,11.40
2022-12-17T21:11:19.249Z,12.05
2022-12-17T21:13:46.036Z,11.25
2022-12-17T21:16:15.369Z,12.88
2022-12-17T21:18:42.343Z,13.67
2022-12-17T21:21:12.120Z,13.40
2022-12-17T21:23:40.159Z,13.07
2022-12-17T21:26:11.257Z,11.90
2022-12-17T21:28:39.984Z,12.68
2022-12-17T21:31:14.992Z,12.30
2022-12-17T21:33:41.954Z,13.18
2022-12-17T21:36:09.010Z,11.80
2022-12-17T21:38:35.756Z,12.45
2022-12-17T21:41:11.317Z,11.75
2022-12-17T21:43:38.387Z,9.20
2022-12-17T21:46:07.452Z,9.98
2022-12-17T21:48:41.583Z,11.43
2022-12-17T21:51:11.465Z,9.80
2022-12-17T21:53:42.169Z,10.90
2022-12-17T21:56:15.231Z,13.20
2022-12-17T21:58:43.887Z,12.10
2022-12-17T22:01:21.665Z,11.13
2022-12-17T22:03:54.080Z,11.60
2022-12-17T22:06:24.266Z,11.52
2022-12-17T22:09:00.868Z,11.17
2022-12-17T22:11:33.406Z,11.00
2022-12-17T22:14:07.212Z,11.80
2022-12-17T22:16:46.733Z,10.85
2022-12-17T22:19:23.059Z,12.48
2022-12-17T22:21:55.405Z,11.50
2022-12-17T22:24:25.580Z,12.00
2022-12-17T22:26:59.867Z,12.55
2022-12-17T22:29:46.455Z,12.50
2022-12-17T22:32:32.122Z,12.38
2022-12-17T22:35:52.764Z,11.33
2022-12-17T22:40:30.351Z,11.40
2022-12-17T22:44:29.144Z,12.02
2022-12-17T22:44:45.730Z,10.63
2022-12-17T22:46:16.813Z,12.02
2022-12-17T22:48:43.735Z,11.50
2022-12-17T22:51:15.996Z,11.27
2022-12-17T22:53:52.342Z,10.68
2022-12-17T22:56:40.746Z,11.38
2022-12-17T22:59:07.135Z,10.07
2022-12-17T23:01:34.402Z,11.07
2022-12-17T23:04:02.098Z,9.70
2022-12-17T23:06:28.776Z,9.18
2022-12-17T23:08:55.859Z,7.95
2022-12-17T23:11:28.839Z,10.52
2022-12-17T23:13:56.085Z,8.93
2022-12-17T23:16:22.866Z,10.77
2022-12-17T23:18:50.913Z,10.02
2022-12-17T23:21:23.880Z,11.80
2022-12-17T23:23:52.354Z,11.38
2022-12-17T23:26:27.749Z,9.60
2022-12-17T23:28:59.388Z,10.25
2022-12-17T23:31:28.593Z,6.95
2022-12-17T23:33:55.530Z,6.55
2022-12-17T23:36:24.899Z,11.25
2022-12-17T23:38:53.299Z,11.53
2022-12-17T23:41:22.839Z,11.05
2022-12-17T23:43:50.019Z,10.95
2022-12-17T23:46:18.530Z,11.05
2022-12-17T23:48:46.416Z,10.75
2022-12-17T23:51:15.600Z,8.70
2022-12-17T23:53:43.098Z,6.10
2022-12-17T23:56:15.297Z,9.90
2022-12-17T23:58:43.110Z,10.90
